Addison Township, MI

4:15 PM EST on November 22, 2014 (GMT -0500)
Village of Leonard | Change Station
CLOSE
Current Station
Personal Weather Station
Location: Leonard, MI
Elevation: 1014 ft
Nearby Weather Stations

Elev 1014 ft 42.87 °N, 83.15 °W | Updated 1 second ago

Overcast
Overcast
40.1 °F
Feels Like 34 °F
N
8.9
Wind Variable Wind from SSW
Gusts 9.8 mph

Today
High -- | Low -- °F
--% Chance of Precip.
Yesterday
High -- | Low -- °F
Precip. -- in
7:33 AM 5:03 PM
New Moon, 0% visible
Pressure 29.91 in
Visibility 4.0 miles
Clouds Overcast 600 ft
Windchill 34 °F
Dew Point 38 °F
Humidity 93%
Rainfall 0.09 in
Snow Depth Not available.
UV 0 out of 12
Pollen .10 out of 12
Air Quality Not available.
Flu Activity Not available.
METAR KD95 222053Z AUTO 23009KT 4SM BR OVC006 04/04 A2991 RMK AO2 T00440035

More Conditions Fewer Conditions

Pressure 29.91 in
Visibility 4.0 miles
Clouds Overcast 600 ft
Windchill 34 °F
Dew Point 38 °F
Humidity 93%
Rainfall 0.09 in
Snow Depth Not available.
UV 0 out of 12
Pollen .10 out of 12
Air Quality Not available.
Flu Activity Not available.
METAR KD95 222053Z AUTO 23009KT 4SM BR OVC006 04/04 A2991 RMK AO2 T00440035

More Conditions Fewer Conditions

10-Day Weather Forecast

Almanac

Astronomy

Nov. 22, 2014 Rise Set
Actual Time
Civil Twilight
Nautical Twilight
Astronomical Twilight
Moon
Length of Visible Light
Length of Day
Tomorrow will be .
, % of the Moon is Illuminated

Today's Extremes

State Highs State Lows

Community

WunderPhotos

Upload Photos

1,772,904 photos uploaded!

WunderBlogs® & News

Nearby

Air Quality

  Air Quality AQ Index Pollutant
Not available.

Snow Depth

Station Depth Elevation

Earthquake Activity

City Distance Mag. Time & Date
Minimum magnitude displayed is 2.5.

Coastal Water Temperatures

Place Temperature

Nearby Weather Stations